Doniphan, MO (63935)

5:59 AM CST on November 21, 2014 (GMT -0600)
Corning | Change Station
CLOSE
Current Station
Airport
Location: Corning,
Elevation: 292 ft
Nearby Weather Stations

Elev 292 ft 36.40 °N, 90.65 °W | Updated 24 minutes ago

Mostly Cloudy
Mostly Cloudy
36 °F
Feels Like 27 °F
N
13
Wind Variable Wind from ENE

Today
High -- | Low -- °F
--% Chance of Precip.
Yesterday
High -- | Low -- °F
Precip. -- in
6:47 AM 4:50 PM
Waning Crescent, 1% visible
Pressure 30.34 in
Visibility 10.0 miles
Clouds Few 4700 ft
Mostly Cloudy 6000 ft
Windchill 27 °F
Dew Point 27 °F
Humidity 70%
Rainfall 0.00 in
Snow Depth Not available.
UV 0 out of 12
Pollen .40 out of 12
Air Quality Not available.
Flu Activity Not available.
METAR K4M9 211135Z AUTO 06011KT 10SM FEW047 BKN060 02/M03 A3034 RMK AO2

More Conditions Fewer Conditions

Pressure 30.34 in
Visibility 10.0 miles
Clouds Few 4700 ft
Mostly Cloudy 6000 ft
Windchill 27 °F
Dew Point 27 °F
Humidity 70%
Rainfall 0.00 in
Snow Depth Not available.
UV 0 out of 12
Pollen .40 out of 12
Air Quality Not available.
Flu Activity Not available.
METAR K4M9 211135Z AUTO 06011KT 10SM FEW047 BKN060 02/M03 A3034 RMK AO2

More Conditions Fewer Conditions

10-Day Weather Forecast

Almanac

Astronomy

Nov. 21, 2014 Rise Set
Actual Time
Civil Twilight
Nautical Twilight
Astronomical Twilight
Moon
Length of Visible Light
Length of Day
Tomorrow will be .
, % of the Moon is Illuminated

Today's Extremes

State Highs State Lows

Community

WunderPhotos

Upload Photos

1,772,644 photos uploaded!

WunderBlogs® & News

Nearby

Air Quality

  Air Quality AQ Index Pollutant
Not available.

Snow Depth

Station Depth Elevation

Earthquake Activity

City Distance Mag. Time & Date
Minimum magnitude displayed is 2.5.

Coastal Water Temperatures

Place Temperature

Nearby Weather Stations